sensor_id;sensor_type;location;lat;lon;timestamp;temperature;humidity
36322;DHT22;23564;48.290;11.460;2023-03-01T00:01:49;1.40;1.00
36322;DHT22;23564;48.290;11.460;2023-03-01T00:04:15;1.50;99.90
36322;DHT22;23564;48.290;11.460;2023-03-01T00:06:42;1.40;99.90
36322;DHT22;23564;48.290;11.460;2023-03-01T00:09:11;1.40;1.00
36322;DHT22;23564;48.290;11.460;2023-03-01T00:11:37;1.40;2.50
36322;DHT22;23564;48.290;11.460;2023-03-01T00:14:03;1.40;1.00
36322;DHT22;23564;48.290;11.460;2023-03-01T00:16:42;1.40;1.00
36322;DHT22;23564;48.290;11.460;2023-03-01T00:19:13;1.40;1.00
36322;DHT22;23564;48.290;11.460;2023-03-01T00:21:39;1.40;6.10
36322;DHT22;23564;48.290;11.460;2023-03-01T00:24:05;1.40;1.00
36322;DHT22;23564;48.290;11.460;2023-03-01T00:26:31;1.40;1.00
36322;DHT22;23564;48.290;11.460;2023-03-01T00:28:58;1.40;1.00
36322;DHT22;23564;48.290;11.460;2023-03-01T00:31:27;1.40;1.00
36322;DHT22;23564;48.290;11.460;2023-03-01T00:33:54;1.40;13.70
36322;DHT22;23564;48.290;11.460;2023-03-01T00:36:25;1.40;99.90
36322;DHT22;23564;48.290;11.460;2023-03-01T00:38:51;1.40;1.00
36322;DHT22;23564;48.290;11.460;2023-03-01T00:41:17;1.40;1.00
36322;DHT22;23564;48.290;11.460;2023-03-01T00:43:44;1.40;78.20
36322;DHT22;23564;48.290;11.460;2023-03-01T00:46:16;1.40;1.00
36322;DHT22;23564;48.290;11.460;2023-03-01T00:48:42;1.30;37.20
36322;DHT22;23564;48.290;11.460;2023-03-01T00:53:38;1.40;1.00
36322;DHT22;23564;48.290;11.460;2023-03-01T00:56:06;1.40;1.00
36322;DHT22;23564;48.290;11.460;2023-03-01T00:58:32;1.40;1.00
36322;DHT22;23564;48.290;11.460;2023-03-01T01:00:58;1.40;99.90
36322;DHT22;23564;48.290;11.460;2023-03-01T01:03:23;1.30;1.00
36322;DHT22;23564;48.290;11.460;2023-03-01T01:05:51;1.40;1.00
36322;DHT22;23564;48.290;11.460;2023-03-01T01:08:17;1.40;99.90
36322;DHT22;23564;48.290;11.460;2023-03-01T01:10:44;1.30;1.00
36322;DHT22;23564;48.290;11.460;2023-03-01T01:13:10;1.40;1.00
36322;DHT22;23564;48.290;11.460;2023-03-01T01:15:36;1.30;1.00
36322;DHT22;23564;48.290;11.460;2023-03-01T01:18:01;1.30;1.00
36322;DHT22;23564;48.290;11.460;2023-03-01T01:20:27;1.40;99.90
36322;DHT22;23564;48.290;11.460;2023-03-01T01:22:53;1.30;1.00
36322;DHT22;23564;48.290;11.460;2023-03-01T01:25:19;1.40;99.90
36322;DHT22;23564;48.290;11.460;2023-03-01T01:27:44;1.30;99.90
36322;DHT22;23564;48.290;11.460;2023-03-01T01:30:10;1.30;99.90
36322;DHT22;23564;48.290;11.460;2023-03-01T01:32:36;1.30;99.90
36322;DHT22;23564;48.290;11.460;2023-03-01T01:35:02;1.30;1.00
36322;DHT22;23564;48.290;11.460;2023-03-01T01:37:28;1.30;1.00
36322;DHT22;23564;48.290;11.460;2023-03-01T01:40:00;1.30;1.00
36322;DHT22;23564;48.290;11.460;2023-03-01T01:42:27;1.30;1.00
36322;DHT22;23564;48.290;11.460;2023-03-01T01:45:28;1.30;73.30
36322;DHT22;23564;48.290;11.460;2023-03-01T01:47:57;1.30;93.80
36322;DHT22;23564;48.290;11.460;2023-03-01T01:50:24;1.30;1.00
36322;DHT22;23564;48.290;11.460;2023-03-01T01:52:51;1.30;1.00
36322;DHT22;23564;48.290;11.460;2023-03-01T01:55:23;1.30;53.80
36322;DHT22;23564;48.290;11.460;2023-03-01T01:57:54;1.30;1.00
36322;DHT22;23564;48.290;11.460;2023-03-01T02:00:27;1.30;1.00
36322;DHT22;23564;48.290;11.460;2023-03-01T02:02:59;1.30;1.00
36322;DHT22;23564;48.290;11.460;2023-03-01T02:06:48;1.20;1.00
36322;DHT22;23564;48.290;11.460;2023-03-01T02:08:42;1.30;1.00
36322;DHT22;23564;48.290;11.460;2023-03-01T02:11:10;1.30;1.00
36322;DHT22;23564;48.290;11.460;2023-03-01T02:13:36;1.30;99.90
36322;DHT22;23564;48.290;11.460;2023-03-01T02:16:13;1.20;99.90
36322;DHT22;23564;48.290;11.460;2023-03-01T02:18:41;1.20;65.40
36322;DHT22;23564;48.290;11.460;2023-03-01T02:23:36;1.20;99.90
36322;DHT22;23564;48.290;11.460;2023-03-01T02:28:56;1.20;99.90
36322;DHT22;23564;48.290;11.460;2023-03-01T02:31:22;1.20;1.00
36322;DHT22;23564;48.290;11.460;2023-03-01T02:34:18;1.20;1.00
36322;DHT22;23564;48.290;11.460;2023-03-01T02:37:00;1.20;99.90
36322;DHT22;23564;48.290;11.460;2023-03-01T02:39:48;1.30;99.90
36322;DHT22;23564;48.290;11.460;2023-03-01T02:42:18;1.20;99.90
36322;DHT22;23564;48.290;11.460;2023-03-01T02:44:45;1.20;99.90
36322;DHT22;23564;48.290;11.460;2023-03-01T02:47:11;1.20;25.30
36322;DHT22;23564;48.290;11.460;2023-03-01T02:49:37;1.20;15.10
36322;DHT22;23564;48.290;11.460;2023-03-01T02:52:41;1.20;94.70
36322;DHT22;23564;48.290;11.460;2023-03-01T02:55:13;1.20;99.90
36322;DHT22;23564;48.290;11.460;2023-03-01T02:57:41;1.10;1.00
36322;DHT22;23564;48.290;11.460;2023-03-01T03:00:14;1.20;1.00
36322;DHT22;23564;48.290;11.460;2023-03-01T03:02:46;1.10;70.20
36322;DHT22;23564;48.290;11.460;2023-03-01T03:05:16;1.20;99.90
36322;DHT22;23564;48.290;11.460;2023-03-01T03:07:44;1.10;99.90
36322;DHT22;23564;48.290;11.460;2023-03-01T03:10:13;1.10;1.00
36322;DHT22;23564;48.290;11.460;2023-03-01T03:12:40;1.10;99.90
36322;DHT22;23564;48.290;11.460;2023-03-01T03:15:07;1.10;99.90
36322;DHT22;23564;48.290;11.460;2023-03-01T03:17:37;1.10;99.90
36322;DHT22;23564;48.290;11.460;2023-03-01T03:20:04;1.10;1.00
36322;DHT22;23564;48.290;11.460;2023-03-01T03:22:31;1.00;99.90
36322;DHT22;23564;48.290;11.460;2023-03-01T03:24:59;1.00;1.00
36322;DHT22;23564;48.290;11.460;2023-03-01T03:27:25;1.00;57.40
36322;DHT22;23564;48.290;11.460;2023-03-01T03:29:50;1.00;1.00
36322;DHT22;23564;48.290;11.460;2023-03-01T03:32:16;1.00;94.90
36322;DHT22;23564;48.290;11.460;2023-03-01T03:34:41;1.00;4.10
36322;DHT22;23564;48.290;11.460;2023-03-01T03:37:07;0.90;15.90
36322;DHT22;23564;48.290;11.460;2023-03-01T03:39:53;1.00;99.90
36322;DHT22;23564;48.290;11.460;2023-03-01T03:42:20;1.00;1.00
36322;DHT22;23564;48.290;11.460;2023-03-01T03:44:47;1.00;99.90
36322;DHT22;23564;48.290;11.460;2023-03-01T03:47:13;1.00;99.90
36322;DHT22;23564;48.290;11.460;2023-03-01T03:49:38;0.90;99.90
36322;DHT22;23564;48.290;11.460;2023-03-01T03:52:04;0.90;99.90
36322;DHT22;23564;48.290;11.460;2023-03-01T03:54:29;0.90;1.00
36322;DHT22;23564;48.290;11.460;2023-03-01T03:56:55;0.80;1.20
36322;DHT22;23564;48.290;11.460;2023-03-01T03:59:20;0.80;1.00
36322;DHT22;23564;48.290;11.460;2023-03-01T04:01:46;0.80;99.90
36322;DHT22;23564;48.290;11.460;2023-03-01T04:04:12;0.80;99.90
36322;DHT22;23564;48.290;11.460;2023-03-01T04:06:38;0.80;42.60
36322;DHT22;23564;48.290;11.460;2023-03-01T04:09:04;0.80;99.90
36322;DHT22;23564;48.290;11.460;2023-03-01T04:11:30;0.80;99.90
36322;DHT22;23564;48.290;11.460;2023-03-01T04:13:57;0.70;99.90
36322;DHT22;23564;48.290;11.460;2023-03-01T04:16:24;0.60;99.90
36322;DHT22;23564;48.290;11.460;2023-03-01T04:18:50;0.50;99.90
36322;DHT22;23564;48.290;11.460;2023-03-01T04:21:16;0.40;21.40
36322;DHT22;23564;48.290;11.460;2023-03-01T04:23:41;0.30;1.00
36322;DHT22;23564;48.290;11.460;2023-03-01T04:26:07;0.30;1.00
36322;DHT22;23564;48.290;11.460;2023-03-01T04:28:39;0.20;1.00
36322;DHT22;23564;48.290;11.460;2023-03-01T04:31:06;0.10;8.20
36322;DHT22;23564;48.290;11.460;2023-03-01T04:33:45;0.00;99.90
36322;DHT22;23564;48.290;11.460;2023-03-01T04:36:12;-0.10;99.90
36322;DHT22;23564;48.290;11.460;2023-03-01T04:38:38;-0.20;1.00
36322;DHT22;23564;48.290;11.460;2023-03-01T04:41:06;-0.30;1.00
36322;DHT22;23564;48.290;11.460;2023-03-01T04:43:32;-0.30;25.50
36322;DHT22;23564;48.290;11.460;2023-03-01T04:46:04;-0.30;1.00
36322;DHT22;23564;48.290;11.460;2023-03-01T04:48:31;-0.40;27.30
36322;DHT22;23564;48.290;11.460;2023-03-01T04:50:59;-0.40;99.90
36322;DHT22;23564;48.290;11.460;2023-03-01T04:53:25;-0.40;99.90
36322;DHT22;23564;48.290;11.460;2023-03-01T04:55:50;-0.40;99.90
36322;DHT22;23564;48.290;11.460;2023-03-01T04:58:16;-0.40;40.10
36322;DHT22;23564;48.290;11.460;2023-03-01T05:00:42;-0.50;99.90
36322;DHT22;23564;48.290;11.460;2023-03-01T05:03:08;-0.50;99.90
36322;DHT22;23564;48.290;11.460;2023-03-01T05:05:37;-0.60;99.90
36322;DHT22;23564;48.290;11.460;2023-03-01T05:08:05;-0.60;99.90
36322;DHT22;23564;48.290;11.460;2023-03-01T05:10:33;-0.60;99.90
36322;DHT22;23564;48.290;11.460;2023-03-01T05:13:00;-0.60;99.90
36322;DHT22;23564;48.290;11.460;2023-03-01T05:15:27;-0.60;99.90
36322;DHT22;23564;48.290;11.460;2023-03-01T05:17:54;-0.70;99.90
36322;DHT22;23564;48.290;11.460;2023-03-01T05:20:21;-0.70;99.90
36322;DHT22;23564;48.290;11.460;2023-03-01T05:22:51;-0.70;99.90
36322;DHT22;23564;48.290;11.460;2023-03-01T05:25:17;-0.70;99.90
36322;DHT22;23564;48.290;11.460;2023-03-01T05:27:42;-0.70;99.90
36322;DHT22;23564;48.290;11.460;2023-03-01T05:30:09;-0.70;99.90
36322;DHT22;23564;48.290;11.460;2023-03-01T05:32:46;-0.80;99.90
36322;DHT22;23564;48.290;11.460;2023-03-01T05:35:13;-0.70;99.90
36322;DHT22;23564;48.290;11.460;2023-03-01T05:37:49;-0.80;99.90
36322;DHT22;23564;48.290;11.460;2023-03-01T05:40:18;-0.80;99.90
36322;DHT22;23564;48.290;11.460;2023-03-01T05:42:55;-0.80;99.90
36322;DHT22;23564;48.290;11.460;2023-03-01T05:45:22;-0.70;99.90
36322;DHT22;23564;48.290;11.460;2023-03-01T05:47:48;-0.70;99.90
36322;DHT22;23564;48.290;11.460;2023-03-01T05:50:20;-0.70;99.90
36322;DHT22;23564;48.290;11.460;2023-03-01T05:52:48;-0.60;99.90
36322;DHT22;23564;48.290;11.460;2023-03-01T05:55:16;-0.60;99.90
36322;DHT22;23564;48.290;11.460;2023-03-01T05:57:42;-0.50;99.90
36322;DHT22;23564;48.290;11.460;2023-03-01T06:00:09;-0.50;99.90
36322;DHT22;23564;48.290;11.460;2023-03-01T06:02:35;-0.40;99.90
36322;DHT22;23564;48.290;11.460;2023-03-01T06:05:00;-0.30;1.00
36322;DHT22;23564;48.290;11.460;2023-03-01T06:07:26;-0.30;1.00
36322;DHT22;23564;48.290;11.460;2023-03-01T06:09:51;-0.30;99.90
36322;DHT22;23564;48.290;11.460;2023-03-01T06:12:17;-0.30;99.90
36322;DHT22;23564;48.290;11.460;2023-03-01T06:14:43;-0.20;1.00
36322;DHT22;23564;48.290;11.460;2023-03-01T06:17:08;-0.20;99.90
36322;DHT22;23564;48.290;11.460;2023-03-01T06:19:34;-0.10;99.90
36322;DHT22;23564;48.290;11.460;2023-03-01T06:21:59;-0.10;99.90
36322;DHT22;23564;48.290;11.460;2023-03-01T06:24:25;-0.10;18.60
36322;DHT22;23564;48.290;11.460;2023-03-01T06:26:53;0.00;13.20
36322;DHT22;23564;48.290;11.460;2023-03-01T06:29:19;0.00;65.60
36322;DHT22;23564;48.290;11.460;2023-03-01T06:31:44;0.00;1.00
36322;DHT22;23564;48.290;11.460;2023-03-01T06:34:11;0.00;99.90
36322;DHT22;23564;48.290;11.460;2023-03-01T06:36:39;0.10;68.90
36322;DHT22;23564;48.290;11.460;2023-03-01T06:39:04;0.00;99.90
36322;DHT22;23564;48.290;11.460;2023-03-01T06:41:31;0.10;1.00
36322;DHT22;23564;48.290;11.460;2023-03-01T06:43:56;0.10;1.00
36322;DHT22;23564;48.290;11.460;2023-03-01T06:46:22;0.10;1.00
36322;DHT22;23564;48.290;11.460;2023-03-01T06:48:47;0.20;99.90
36322;DHT22;23564;48.290;11.460;2023-03-01T06:51:13;0.20;99.90
36322;DHT22;23564;48.290;11.460;2023-03-01T06:53:39;0.20;99.90
36322;DHT22;23564;48.290;11.460;2023-03-01T06:56:04;0.30;99.90
36322;DHT22;23564;48.290;11.460;2023-03-01T06:58:30;0.30;99.90
36322;DHT22;23564;48.290;11.460;2023-03-01T07:00:55;0.30;1.00
36322;DHT22;23564;48.290;11.460;2023-03-01T07:03:21;0.30;1.00
36322;DHT22;23564;48.290;11.460;2023-03-01T07:05:51;0.30;30.50
36322;DHT22;23564;48.290;11.460;2023-03-01T07:08:19;0.40;1.00
36322;DHT22;23564;48.290;11.460;2023-03-01T07:10:45;0.40;16.80
36322;DHT22;23564;48.290;11.460;2023-03-01T07:13:10;0.40;99.90
36322;DHT22;23564;48.290;11.460;2023-03-01T07:15:36;0.40;99.90
36322;DHT22;23564;48.290;11.460;2023-03-01T07:18:02;0.40;92.30
36322;DHT22;23564;48.290;11.460;2023-03-01T07:20:28;0.50;1.00
36322;DHT22;23564;48.290;11.460;2023-03-01T07:22:54;0.50;99.90
36322;DHT22;23564;48.290;11.460;2023-03-01T07:25:20;0.60;1.00
36322;DHT22;23564;48.290;11.460;2023-03-01T07:27:52;0.60;99.90
36322;DHT22;23564;48.290;11.460;2023-03-01T07:30:18;0.60;99.90
36322;DHT22;23564;48.290;11.460;2023-03-01T07:32:43;0.60;99.90
36322;DHT22;23564;48.290;11.460;2023-03-01T07:35:10;0.60;1.00
36322;DHT22;23564;48.290;11.460;2023-03-01T07:37:36;0.60;99.90
36322;DHT22;23564;48.290;11.460;2023-03-01T07:40:02;0.80;99.90
36322;DHT22;23564;48.290;11.460;2023-03-01T07:42:28;0.80;99.90
36322;DHT22;23564;48.290;11.460;2023-03-01T07:44:53;0.90;99.90
36322;DHT22;23564;48.290;11.460;2023-03-01T07:47:19;1.00;99.90
36322;DHT22;23564;48.290;11.460;2023-03-01T07:49:44;1.10;8.70
36322;DHT22;23564;48.290;11.460;2023-03-01T07:52:12;1.10;1.00
36322;DHT22;23564;48.290;11.460;2023-03-01T07:54:38;1.10;1.00
36322;DHT22;23564;48.290;11.460;2023-03-01T07:57:04;1.20;1.00
36322;DHT22;23564;48.290;11.460;2023-03-01T07:59:30;1.20;1.00
36322;DHT22;23564;48.290;11.460;2023-03-01T08:01:57;1.20;1.00
36322;DHT22;23564;48.290;11.460;2023-03-01T08:04:23;1.20;1.00
36322;DHT22;23564;48.290;11.460;2023-03-01T08:06:52;1.30;1.00
36322;DHT22;23564;48.290;11.460;2023-03-01T08:09:17;1.30;1.00
36322;DHT22;23564;48.290;11.460;2023-03-01T08:11:43;1.40;1.00
36322;DHT22;23564;48.290;11.460;2023-03-01T08:14:09;1.40;1.00
36322;DHT22;23564;48.290;11.460;2023-03-01T08:16:36;1.40;1.00
36322;DHT22;23564;48.290;11.460;2023-03-01T08:19:06;1.50;1.00
36322;DHT22;23564;48.290;11.460;2023-03-01T08:21:32;1.60;99.90
36322;DHT22;23564;48.290;11.460;2023-03-01T08:24:00;1.60;99.90
36322;DHT22;23564;48.290;11.460;2023-03-01T08:26:26;1.70;1.00
36322;DHT22;23564;48.290;11.460;2023-03-01T08:28:51;1.70;1.00
36322;DHT22;23564;48.290;11.460;2023-03-01T08:31:23;1.80;99.90
36322;DHT22;23564;48.290;11.460;2023-03-01T08:33:50;1.80;99.90
36322;DHT22;23564;48.290;11.460;2023-03-01T08:36:24;1.80;99.90
36322;DHT22;23564;48.290;11.460;2023-03-01T08:38:50;1.90;99.90
36322;DHT22;23564;48.290;11.460;2023-03-01T08:41:16;1.90;99.90
36322;DHT22;23564;48.290;11.460;2023-03-01T08:43:42;2.00;99.90
36322;DHT22;23564;48.290;11.460;2023-03-01T08:46:08;2.10;99.90
36322;DHT22;23564;48.290;11.460;2023-03-01T08:48:33;2.00;99.90
36322;DHT22;23564;48.290;11.460;2023-03-01T08:51:14;2.00;99.90
36322;DHT22;23564;48.290;11.460;2023-03-01T08:53:40;2.10;99.90
36322;DHT22;23564;48.290;11.460;2023-03-01T08:56:07;2.20;99.90
36322;DHT22;23564;48.290;11.460;2023-03-01T08:58:33;2.30;99.90
36322;DHT22;23564;48.290;11.460;2023-03-01T09:00:59;2.30;99.90
36322;DHT22;23564;48.290;11.460;2023-03-01T09:03:25;2.40;99.90
36322;DHT22;23564;48.290;11.460;2023-03-01T09:05:52;2.50;99.90
36322;DHT22;23564;48.290;11.460;2023-03-01T09:08:18;2.50;99.90
36322;DHT22;23564;48.290;11.460;2023-03-01T09:10:44;2.50;99.90
36322;DHT22;23564;48.290;11.460;2023-03-01T09:13:10;2.40;99.90
36322;DHT22;23564;48.290;11.460;2023-03-01T09:15:38;2.30;99.90
36322;DHT22;23564;48.290;11.460;2023-03-01T09:18:04;2.10;99.90
36322;DHT22;23564;48.290;11.460;2023-03-01T09:20:31;2.00;99.90
36322;DHT22;23564;48.290;11.460;2023-03-01T09:22:57;2.00;99.90
36322;DHT22;23564;48.290;11.460;2023-03-01T09:25:23;1.90;99.90
36322;DHT22;23564;48.290;11.460;2023-03-01T09:27:53;1.90;99.90
36322;DHT22;23564;48.290;11.460;2023-03-01T09:30:19;1.90;99.90
36322;DHT22;23564;48.290;11.460;2023-03-01T09:32:44;1.90;99.90
36322;DHT22;23564;48.290;11.460;2023-03-01T09:35:11;2.00;99.90
36322;DHT22;23564;48.290;11.460;2023-03-01T09:37:37;2.10;99.90
36322;DHT22;23564;48.290;11.460;2023-03-01T09:40:17;2.10;99.90
36322;DHT22;23564;48.290;11.460;2023-03-01T09:42:55;2.30;99.90
36322;DHT22;23564;48.290;11.460;2023-03-01T09:45:30;2.30;99.90
36322;DHT22;23564;48.290;11.460;2023-03-01T09:47:58;2.40;99.90
36322;DHT22;23564;48.290;11.460;2023-03-01T09:50:38;2.50;99.90
36322;DHT22;23564;48.290;11.460;2023-03-01T09:53:10;2.50;99.90
36322;DHT22;23564;48.290;11.460;2023-03-01T09:56:02;2.50;99.90
36322;DHT22;23564;48.290;11.460;2023-03-01T09:58:54;2.50;99.90
36322;DHT22;23564;48.290;11.460;2023-03-01T10:01:31;2.40;99.90
36322;DHT22;23564;48.290;11.460;2023-03-01T10:06:51;2.30;99.90
36322;DHT22;23564;48.290;11.460;2023-03-01T10:09:19;2.30;99.90
36322;DHT22;23564;48.290;11.460;2023-03-01T10:11:50;2.30;99.90
36322;DHT22;23564;48.290;11.460;2023-03-01T10:14:38;2.30;99.90
36322;DHT22;23564;48.290;11.460;2023-03-01T10:19:49;2.40;99.90
36322;DHT22;23564;48.290;11.460;2023-03-01T10:22:19;2.50;99.90
36322;DHT22;23564;48.290;11.460;2023-03-01T10:24:47;2.50;99.90
36322;DHT22;23564;48.290;11.460;2023-03-01T10:27:26;2.50;99.90
36322;DHT22;23564;48.290;11.460;2023-03-01T10:30:18;2.50;99.90
36322;DHT22;23564;48.290;11.460;2023-03-01T10:32:46;2.50;99.90
36322;DHT22;23564;48.290;11.460;2023-03-01T10:35:22;2.50;99.90
36322;DHT22;23564;48.290;11.460;2023-03-01T10:38:06;2.40;99.90
36322;DHT22;23564;48.290;11.460;2023-03-01T10:40:33;2.40;99.90
36322;DHT22;23564;48.290;11.460;2023-03-01T10:43:01;2.40;99.90
36322;DHT22;23564;48.290;11.460;2023-03-01T10:50:42;2.80;99.90
36322;DHT22;23564;48.290;11.460;2023-03-01T10:53:22;2.80;99.90
36322;DHT22;23564;48.290;11.460;2023-03-01T10:56:15;2.90;99.90
36322;DHT22;23564;48.290;11.460;2023-03-01T10:59:00;2.90;99.90
36322;DHT22;23564;48.290;11.460;2023-03-01T11:01:34;3.10;99.90
36322;DHT22;23564;48.290;11.460;2023-03-01T11:04:13;3.10;99.90
36322;DHT22;23564;48.290;11.460;2023-03-01T11:06:40;3.20;99.90
36322;DHT22;23564;48.290;11.460;2023-03-01T11:09:21;3.30;99.90
36322;DHT22;23564;48.290;11.460;2023-03-01T11:11:55;3.30;99.90
36322;DHT22;23564;48.290;11.460;2023-03-01T11:14:23;3.30;99.90
36322;DHT22;23564;48.290;11.460;2023-03-01T11:17:02;3.50;99.90
36322;DHT22;23564;48.290;11.460;2023-03-01T11:19:29;3.50;99.90
36322;DHT22;23564;48.290;11.460;2023-03-01T11:24:48;3.50;99.90
36322;DHT22;23564;48.290;11.460;2023-03-01T11:27:18;3.50;99.90
36322;DHT22;23564;48.290;11.460;2023-03-01T11:29:48;3.60;99.90
36322;DHT22;23564;48.290;11.460;2023-03-01T11:32:16;3.70;99.90
36322;DHT22;23564;48.290;11.460;2023-03-01T11:37:54;3.70;99.90
36322;DHT22;23564;48.290;11.460;2023-03-01T11:40:40;3.70;99.90
36322;DHT22;23564;48.290;11.460;2023-03-01T11:50:56;3.80;99.90
36322;DHT22;23564;48.290;11.460;2023-03-01T11:58:45;3.90;99.90
36322;DHT22;23564;48.290;11.460;2023-03-01T12:01:51;3.90;99.90
36322;DHT22;23564;48.290;11.460;2023-03-01T12:10:29;4.20;99.90
36322;DHT22;23564;48.290;11.460;2023-03-01T12:18:36;4.20;99.90
36322;DHT22;23564;48.290;11.460;2023-03-01T12:23:53;4.20;99.90
36322;DHT22;23564;48.290;11.460;2023-03-01T12:27:07;4.40;99.90
36322;DHT22;23564;48.290;11.460;2023-03-01T12:33:10;4.40;99.90
36322;DHT22;23564;48.290;11.460;2023-03-01T12:38:42;4.40;99.90
36322;DHT22;23564;48.290;11.460;2023-03-01T12:41:14;4.40;99.90
36322;DHT22;23564;48.290;11.460;2023-03-01T12:49:25;4.60;99.90
36322;DHT22;23564;48.290;11.460;2023-03-01T12:52:01;4.70;99.90
36322;DHT22;23564;48.290;11.460;2023-03-01T12:54:30;4.70;99.90
36322;DHT22;23564;48.290;11.460;2023-03-01T12:57:28;4.80;99.90
36322;DHT22;23564;48.290;11.460;2023-03-01T13:02:48;4.80;99.90
36322;DHT22;23564;48.290;11.460;2023-03-01T13:05:38;4.90;99.90
36322;DHT22;23564;48.290;11.460;2023-03-01T13:08:21;4.90;99.90
36322;DHT22;23564;48.290;11.460;2023-03-01T13:10:53;4.90;99.90
36322;DHT22;23564;48.290;11.460;2023-03-01T13:13:26;5.00;99.90
36322;DHT22;23564;48.290;11.460;2023-03-01T13:15:52;5.00;99.90
36322;DHT22;23564;48.290;11.460;2023-03-01T13:20:48;5.00;99.90
36322;DHT22;23564;48.290;11.460;2023-03-01T13:26:04;5.00;99.90
36322;DHT22;23564;48.290;11.460;2023-03-01T13:28:40;5.10;99.90
36322;DHT22;23564;48.290;11.460;2023-03-01T13:33:53;5.30;99.90
36322;DHT22;23564;48.290;11.460;2023-03-01T13:38:58;5.30;99.90
36322;DHT22;23564;48.290;11.460;2023-03-01T13:47:17;5.40;99.90
36322;DHT22;23564;48.290;11.460;2023-03-01T13:49:57;5.40;99.90
36322;DHT22;23564;48.290;11.460;2023-03-01T13:52:39;5.40;99.90
36322;DHT22;23564;48.290;11.460;2023-03-01T13:58:03;5.50;99.90
36322;DHT22;23564;48.290;11.460;2023-03-01T14:00:38;5.40;99.90
36322;DHT22;23564;48.290;11.460;2023-03-01T14:03:18;5.30;99.90
36322;DHT22;23564;48.290;11.460;2023-03-01T14:06:06;5.30;99.90
36322;DHT22;23564;48.290;11.460;2023-03-01T14:08:33;5.40;99.90
36322;DHT22;23564;48.290;11.460;2023-03-01T14:13:58;5.40;99.90
36322;DHT22;23564;48.290;11.460;2023-03-01T14:19:31;5.30;99.90
36322;DHT22;23564;48.290;11.460;2023-03-01T14:22:23;5.30;99.90
36322;DHT22;23564;48.290;11.460;2023-03-01T14:24:51;5.30;99.90
36322;DHT22;23564;48.290;11.460;2023-03-01T14:27:17;5.40;99.90
36322;DHT22;23564;48.290;11.460;2023-03-01T14:29:45;5.50;99.90
36322;DHT22;23564;48.290;11.460;2023-03-01T14:32:28;5.50;99.90
36322;DHT22;23564;48.290;11.460;2023-03-01T14:34:56;5.60;99.90
36322;DHT22;23564;48.290;11.460;2023-03-01T14:37:32;5.60;99.90
36322;DHT22;23564;48.290;11.460;2023-03-01T14:40:00;5.60;99.90
36322;DHT22;23564;48.290;11.460;2023-03-01T14:42:34;5.70;99.90
36322;DHT22;23564;48.290;11.460;2023-03-01T14:45:02;5.70;99.90
36322;DHT22;23564;48.290;11.460;2023-03-01T14:47:30;5.70;99.90
36322;DHT22;23564;48.290;11.460;2023-03-01T14:52:48;5.70;99.90
36322;DHT22;23564;48.290;11.460;2023-03-01T14:55:19;5.80;99.90
36322;DHT22;23564;48.290;11.460;2023-03-01T14:57:48;5.80;99.90
36322;DHT22;23564;48.290;11.460;2023-03-01T15:00:22;5.80;99.90
36322;DHT22;23564;48.290;11.460;2023-03-01T15:02:51;5.70;99.90
36322;DHT22;23564;48.290;11.460;2023-03-01T15:05:31;5.80;99.90
36322;DHT22;23564;48.290;11.460;2023-03-01T15:07:59;5.70;99.90
36322;DHT22;23564;48.290;11.460;2023-03-01T15:10:32;5.70;99.90
36322;DHT22;23564;48.290;11.460;2023-03-01T15:13:21;5.70;99.90
36322;DHT22;23564;48.290;11.460;2023-03-01T15:15:48;5.70;99.90
36322;DHT22;23564;48.290;11.460;2023-03-01T15:20:41;5.80;99.90
36322;DHT22;23564;48.290;11.460;2023-03-01T15:23:21;5.80;99.90
36322;DHT22;23564;48.290;11.460;2023-03-01T15:25:49;5.70;99.90
36322;DHT22;23564;48.290;11.460;2023-03-01T15:28:41;5.70;99.90
36322;DHT22;23564;48.290;11.460;2023-03-01T15:31:19;5.80;99.90
36322;DHT22;23564;48.290;11.460;2023-03-01T15:33:46;5.80;99.90
36322;DHT22;23564;48.290;11.460;2023-03-01T15:36:45;5.80;99.90
36322;DHT22;23564;48.290;11.460;2023-03-01T15:41:55;5.80;99.90
36322;DHT22;23564;48.290;11.460;2023-03-01T15:44:38;5.80;99.90
36322;DHT22;23564;48.290;11.460;2023-03-01T15:47:39;5.90;99.90
36322;DHT22;23564;48.290;11.460;2023-03-01T15:50:11;5.80;99.90
36322;DHT22;23564;48.290;11.460;2023-03-01T15:52:42;5.80;99.90
36322;DHT22;23564;48.290;11.460;2023-03-01T15:55:25;5.90;99.90
36322;DHT22;23564;48.290;11.460;2023-03-01T15:58:16;5.80;99.90
36322;DHT22;23564;48.290;11.460;2023-03-01T16:00:43;5.70;99.90
36322;DHT22;23564;48.290;11.460;2023-03-01T16:03:10;5.70;99.90
36322;DHT22;23564;48.290;11.460;2023-03-01T16:05:38;5.70;99.90
36322;DHT22;23564;48.290;11.460;2023-03-01T16:08:05;5.70;99.90
36322;DHT22;23564;48.290;11.460;2023-03-01T16:10:32;5.70;99.90
36322;DHT22;23564;48.290;11.460;2023-03-01T16:12:58;5.70;99.90
36322;DHT22;23564;48.290;11.460;2023-03-01T16:15:27;5.60;99.90
36322;DHT22;23564;48.290;11.460;2023-03-01T16:17:53;5.70;99.90
36322;DHT22;23564;48.290;11.460;2023-03-01T16:20:19;5.60;99.90
36322;DHT22;23564;48.290;11.460;2023-03-01T16:22:46;5.60;99.90
36322;DHT22;23564;48.290;11.460;2023-03-01T16:25:14;5.50;1.00
36322;DHT22;23564;48.290;11.460;2023-03-01T16:27:42;5.50;1.00
36322;DHT22;23564;48.290;11.460;2023-03-01T16:30:09;5.40;1.00
36322;DHT22;23564;48.290;11.460;2023-03-01T16:32:43;5.30;1.00
36322;DHT22;23564;48.290;11.460;2023-03-01T16:35:10;5.30;1.00
36322;DHT22;23564;48.290;11.460;2023-03-01T16:37:37;5.30;1.00
36322;DHT22;23564;48.290;11.460;2023-03-01T16:40:04;5.20;1.00
36322;DHT22;23564;48.290;11.460;2023-03-01T16:42:34;5.10;1.00
36322;DHT22;23564;48.290;11.460;2023-03-01T16:45:00;5.00;74.80
36322;DHT22;23564;48.290;11.460;2023-03-01T16:47:27;4.90;99.90
36322;DHT22;23564;48.290;11.460;2023-03-01T16:49:53;4.80;99.90
36322;DHT22;23564;48.290;11.460;2023-03-01T16:52:20;4.70;1.00
36322;DHT22;23564;48.290;11.460;2023-03-01T16:54:45;4.80;17.90
36322;DHT22;23564;48.290;11.460;2023-03-01T16:57:11;4.70;79.60
36322;DHT22;23564;48.290;11.460;2023-03-01T16:59:36;4.60;99.90
36322;DHT22;23564;48.290;11.460;2023-03-01T17:02:03;4.50;1.00
36322;DHT22;23564;48.290;11.460;2023-03-01T17:04:29;4.40;1.00
36322;DHT22;23564;48.290;11.460;2023-03-01T17:06:54;4.40;1.00
36322;DHT22;23564;48.290;11.460;2023-03-01T17:09:20;4.40;5.20
36322;DHT22;23564;48.290;11.460;2023-03-01T17:11:48;4.50;92.60
36322;DHT22;23564;48.290;11.460;2023-03-01T17:14:14;4.40;1.00
36322;DHT22;23564;48.290;11.460;2023-03-01T17:16:41;4.50;99.90
36322;DHT22;23564;48.290;11.460;2023-03-01T17:19:07;4.50;1.00
36322;DHT22;23564;48.290;11.460;2023-03-01T17:21:33;4.50;1.00
36322;DHT22;23564;48.290;11.460;2023-03-01T17:23:59;4.50;1.00
36322;DHT22;23564;48.290;11.460;2023-03-01T17:26:25;4.50;1.00
36322;DHT22;23564;48.290;11.460;2023-03-01T17:28:54;4.40;99.90
36322;DHT22;23564;48.290;11.460;2023-03-01T17:31:19;4.40;99.90